sensor_id;sensor_type;location;lat;lon;timestamp;P1;durP1;ratioP1;P2;durP2;ratioP2
9834;SDS011;69850;50.942;13.748;2023-05-23T00:03:02;9.93;;;8.25;;
9834;SDS011;69850;50.942;13.748;2023-05-23T00:06:23;12.00;;;8.10;;
9834;SDS011;69850;50.942;13.748;2023-05-23T00:09:44;11.77;;;7.97;;
9834;SDS011;69850;50.942;13.748;2023-05-23T00:13:04;16.58;;;8.60;;
9834;SDS011;69850;50.942;13.748;2023-05-23T00:16:28;14.50;;;8.77;;
9834;SDS011;69850;50.942;13.748;2023-05-23T00:19:49;10.90;;;9.20;;
9834;SDS011;69850;50.942;13.748;2023-05-23T00:23:10;12.55;;;8.80;;
9834;SDS011;69850;50.942;13.748;2023-05-23T00:26:38;13.10;;;8.63;;
9834;SDS011;69850;50.942;13.748;2023-05-23T00:29:58;11.48;;;8.90;;
9834;SDS011;69850;50.942;13.748;2023-05-23T00:33:19;11.18;;;9.32;;
9834;SDS011;69850;50.942;13.748;2023-05-23T00:36:41;12.35;;;9.40;;
9834;SDS011;69850;50.942;13.748;2023-05-23T00:40:03;11.95;;;9.40;;
9834;SDS011;69850;50.942;13.748;2023-05-23T00:43:24;13.85;;;9.90;;
9834;SDS011;69850;50.942;13.748;2023-05-23T00:46:46;13.20;;;9.27;;
9834;SDS011;69850;50.942;13.748;2023-05-23T00:50:11;12.43;;;9.88;;
9834;SDS011;69850;50.942;13.748;2023-05-23T00:53:33;13.38;;;9.82;;
9834;SDS011;69850;50.942;13.748;2023-05-23T00:56:55;12.93;;;9.75;;
9834;SDS011;69850;50.942;13.748;2023-05-23T01:00:16;10.35;;;9.00;;
9834;SDS011;69850;50.942;13.748;2023-05-23T01:03:39;12.65;;;9.85;;
9834;SDS011;69850;50.942;13.748;2023-05-23T01:07:00;13.35;;;10.05;;
9834;SDS011;69850;50.942;13.748;2023-05-23T01:10:22;13.95;;;11.05;;
9834;SDS011;69850;50.942;13.748;2023-05-23T01:13:58;16.80;;;11.05;;
9834;SDS011;69850;50.942;13.748;2023-05-23T01:17:23;14.02;;;11.40;;
9834;SDS011;69850;50.942;13.748;2023-05-23T01:20:50;17.45;;;11.85;;
9834;SDS011;69850;50.942;13.748;2023-05-23T01:24:28;20.10;;;11.98;;
9834;SDS011;69850;50.942;13.748;2023-05-23T01:28:02;17.65;;;11.73;;
9834;SDS011;69850;50.942;13.748;2023-05-23T01:31:25;15.30;;;11.23;;
9834;SDS011;69850;50.942;13.748;2023-05-23T01:34:47;13.02;;;10.57;;
9834;SDS011;69850;50.942;13.748;2023-05-23T01:38:08;16.35;;;11.13;;
9834;SDS011;69850;50.942;13.748;2023-05-23T01:41:29;18.52;;;9.85;;
9834;SDS011;69850;50.942;13.748;2023-05-23T01:44:49;15.98;;;10.18;;
9834;SDS011;69850;50.942;13.748;2023-05-23T01:48:11;14.55;;;11.50;;
9834;SDS011;69850;50.942;13.748;2023-05-23T01:51:32;14.75;;;10.50;;
9834;SDS011;69850;50.942;13.748;2023-05-23T01:54:53;16.85;;;10.88;;
9834;SDS011;69850;50.942;13.748;2023-05-23T01:58:16;21.90;;;12.60;;
9834;SDS011;69850;50.942;13.748;2023-05-23T02:01:36;21.02;;;11.95;;
9834;SDS011;69850;50.942;13.748;2023-05-23T02:04:58;16.98;;;13.45;;
9834;SDS011;69850;50.942;13.748;2023-05-23T02:08:19;19.15;;;13.30;;
9834;SDS011;69850;50.942;13.748;2023-05-23T02:11:40;16.05;;;10.88;;
9834;SDS011;69850;50.942;13.748;2023-05-23T02:15:01;15.65;;;11.00;;
9834;SDS011;69850;50.942;13.748;2023-05-23T02:18:24;19.17;;;11.07;;
9834;SDS011;69850;50.942;13.748;2023-05-23T02:21:49;16.63;;;10.25;;
9834;SDS011;69850;50.942;13.748;2023-05-23T02:25:09;13.93;;;10.95;;
9834;SDS011;69850;50.942;13.748;2023-05-23T02:28:30;19.05;;;11.20;;
9834;SDS011;69850;50.942;13.748;2023-05-23T02:31:50;14.82;;;11.07;;
9834;SDS011;69850;50.942;13.748;2023-05-23T02:35:11;17.42;;;11.32;;
9834;SDS011;69850;50.942;13.748;2023-05-23T02:38:32;14.48;;;11.10;;
9834;SDS011;69850;50.942;13.748;2023-05-23T02:41:53;16.45;;;11.13;;
9834;SDS011;69850;50.942;13.748;2023-05-23T02:45:14;12.50;;;10.20;;
9834;SDS011;69850;50.942;13.748;2023-05-23T02:48:35;13.13;;;8.40;;
9834;SDS011;69850;50.942;13.748;2023-05-23T02:51:55;10.82;;;8.90;;
9834;SDS011;69850;50.942;13.748;2023-05-23T02:55:16;13.98;;;10.23;;
9834;SDS011;69850;50.942;13.748;2023-05-23T02:58:40;14.05;;;10.38;;
9834;SDS011;69850;50.942;13.748;2023-05-23T03:02:01;13.35;;;10.40;;
9834;SDS011;69850;50.942;13.748;2023-05-23T03:05:22;12.02;;;10.15;;
9834;SDS011;69850;50.942;13.748;2023-05-23T03:08:42;13.02;;;9.65;;
9834;SDS011;69850;50.942;13.748;2023-05-23T03:12:04;12.20;;;9.38;;
9834;SDS011;69850;50.942;13.748;2023-05-23T03:15:25;13.85;;;9.35;;
9834;SDS011;69850;50.942;13.748;2023-05-23T03:18:46;13.77;;;10.05;;
9834;SDS011;69850;50.942;13.748;2023-05-23T03:22:06;14.00;;;9.85;;
9834;SDS011;69850;50.942;13.748;2023-05-23T03:25:27;12.15;;;9.70;;
9834;SDS011;69850;50.942;13.748;2023-05-23T03:28:48;16.15;;;10.32;;
9834;SDS011;69850;50.942;13.748;2023-05-23T03:32:12;11.57;;;9.65;;
9834;SDS011;69850;50.942;13.748;2023-05-23T03:35:33;15.82;;;11.00;;
9834;SDS011;69850;50.942;13.748;2023-05-23T03:38:54;11.23;;;9.65;;
9834;SDS011;69850;50.942;13.748;2023-05-23T03:42:14;11.70;;;9.95;;
9834;SDS011;69850;50.942;13.748;2023-05-23T03:45:35;14.15;;;10.68;;
9834;SDS011;69850;50.942;13.748;2023-05-23T03:49:03;13.77;;;11.18;;
9834;SDS011;69850;50.942;13.748;2023-05-23T03:52:24;16.63;;;12.27;;
9834;SDS011;69850;50.942;13.748;2023-05-23T03:55:44;16.20;;;11.85;;
9834;SDS011;69850;50.942;13.748;2023-05-23T03:59:05;14.15;;;11.05;;
9834;SDS011;69850;50.942;13.748;2023-05-23T04:02:26;14.43;;;11.75;;
9834;SDS011;69850;50.942;13.748;2023-05-23T04:05:46;13.07;;;10.98;;
9834;SDS011;69850;50.942;13.748;2023-05-23T04:09:07;15.75;;;11.55;;
9834;SDS011;69850;50.942;13.748;2023-05-23T04:12:33;14.60;;;11.32;;
9834;SDS011;69850;50.942;13.748;2023-05-23T04:15:55;24.02;;;12.38;;
9834;SDS011;69850;50.942;13.748;2023-05-23T04:19:16;14.38;;;11.00;;
9834;SDS011;69850;50.942;13.748;2023-05-23T04:22:37;14.98;;;10.80;;
9834;SDS011;69850;50.942;13.748;2023-05-23T04:25:58;12.43;;;10.07;;
9834;SDS011;69850;50.942;13.748;2023-05-23T04:29:25;12.43;;;10.90;;
9834;SDS011;69850;50.942;13.748;2023-05-23T04:32:48;10.88;;;9.50;;
9834;SDS011;69850;50.942;13.748;2023-05-23T04:36:09;13.23;;;10.30;;
9834;SDS011;69850;50.942;13.748;2023-05-23T04:39:32;12.40;;;10.07;;
9834;SDS011;69850;50.942;13.748;2023-05-23T04:43:11;14.68;;;11.90;;
9834;SDS011;69850;50.942;13.748;2023-05-23T04:46:56;13.90;;;10.82;;
9834;SDS011;69850;50.942;13.748;2023-05-23T04:50:22;14.00;;;11.10;;
9834;SDS011;69850;50.942;13.748;2023-05-23T04:53:43;12.13;;;9.90;;
9834;SDS011;69850;50.942;13.748;2023-05-23T04:57:05;14.27;;;10.35;;
9834;SDS011;69850;50.942;13.748;2023-05-23T05:00:27;12.10;;;10.68;;
9834;SDS011;69850;50.942;13.748;2023-05-23T05:03:50;13.05;;;11.20;;
9834;SDS011;69850;50.942;13.748;2023-05-23T05:07:11;12.95;;;10.40;;
9834;SDS011;69850;50.942;13.748;2023-05-23T05:10:33;13.63;;;8.75;;
9834;SDS011;69850;50.942;13.748;2023-05-23T05:13:53;11.73;;;9.20;;
9834;SDS011;69850;50.942;13.748;2023-05-23T05:17:14;12.40;;;10.90;;
9834;SDS011;69850;50.942;13.748;2023-05-23T05:20:54;10.48;;;9.18;;
9834;SDS011;69850;50.942;13.748;2023-05-23T05:24:17;11.45;;;9.32;;
9834;SDS011;69850;50.942;13.748;2023-05-23T05:27:40;10.48;;;9.35;;
9834;SDS011;69850;50.942;13.748;2023-05-23T05:31:03;13.45;;;11.10;;
9834;SDS011;69850;50.942;13.748;2023-05-23T05:34:27;15.23;;;10.82;;
9834;SDS011;69850;50.942;13.748;2023-05-23T05:37:49;13.65;;;10.30;;
9834;SDS011;69850;50.942;13.748;2023-05-23T05:41:10;16.92;;;12.95;;
9834;SDS011;69850;50.942;13.748;2023-05-23T05:44:36;15.48;;;12.48;;
9834;SDS011;69850;50.942;13.748;2023-05-23T05:47:57;15.32;;;13.45;;
9834;SDS011;69850;50.942;13.748;2023-05-23T05:51:19;15.43;;;13.82;;
9834;SDS011;69850;50.942;13.748;2023-05-23T05:54:39;19.38;;;15.88;;
9834;SDS011;69850;50.942;13.748;2023-05-23T05:58:00;20.65;;;17.02;;
9834;SDS011;69850;50.942;13.748;2023-05-23T06:01:26;19.27;;;17.17;;
9834;SDS011;69850;50.942;13.748;2023-05-23T06:04:47;20.48;;;18.10;;
9834;SDS011;69850;50.942;13.748;2023-05-23T06:08:08;22.10;;;17.80;;
9834;SDS011;69850;50.942;13.748;2023-05-23T06:11:28;20.88;;;17.45;;
9834;SDS011;69850;50.942;13.748;2023-05-23T06:14:49;23.88;;;18.25;;
9834;SDS011;69850;50.942;13.748;2023-05-23T06:18:10;20.40;;;18.13;;
9834;SDS011;69850;50.942;13.748;2023-05-23T06:21:31;26.13;;;18.85;;
9834;SDS011;69850;50.942;13.748;2023-05-23T06:24:53;25.52;;;21.40;;
9834;SDS011;69850;50.942;13.748;2023-05-23T06:28:13;23.85;;;20.20;;
9834;SDS011;69850;50.942;13.748;2023-05-23T06:31:34;25.88;;;21.75;;
9834;SDS011;69850;50.942;13.748;2023-05-23T06:34:55;33.22;;;27.27;;
9834;SDS011;69850;50.942;13.748;2023-05-23T06:38:15;33.83;;;30.27;;
9834;SDS011;69850;50.942;13.748;2023-05-23T06:41:38;36.47;;;31.15;;
9834;SDS011;69850;50.942;13.748;2023-05-23T06:44:59;40.38;;;34.00;;
9834;SDS011;69850;50.942;13.748;2023-05-23T06:48:19;39.30;;;34.97;;
9834;SDS011;69850;50.942;13.748;2023-05-23T06:51:41;40.15;;;35.72;;
9834;SDS011;69850;50.942;13.748;2023-05-23T06:55:02;40.33;;;34.60;;
9834;SDS011;69850;50.942;13.748;2023-05-23T06:58:23;38.55;;;32.83;;
9834;SDS011;69850;50.942;13.748;2023-05-23T07:01:44;34.42;;;30.80;;
9834;SDS011;69850;50.942;13.748;2023-05-23T07:05:07;33.42;;;29.52;;
9834;SDS011;69850;50.942;13.748;2023-05-23T07:08:43;30.52;;;25.05;;
9834;SDS011;69850;50.942;13.748;2023-05-23T07:12:06;26.77;;;23.42;;
9834;SDS011;69850;50.942;13.748;2023-05-23T07:15:29;26.60;;;22.02;;
9834;SDS011;69850;50.942;13.748;2023-05-23T07:19:04;25.75;;;22.50;;
9834;SDS011;69850;50.942;13.748;2023-05-23T07:22:27;23.92;;;19.65;;
9834;SDS011;69850;50.942;13.748;2023-05-23T07:25:48;24.80;;;21.88;;
9834;SDS011;69850;50.942;13.748;2023-05-23T07:29:18;25.60;;;20.20;;
9834;SDS011;69850;50.942;13.748;2023-05-23T07:32:41;22.42;;;19.00;;
9834;SDS011;69850;50.942;13.748;2023-05-23T07:36:06;20.73;;;18.45;;
9834;SDS011;69850;50.942;13.748;2023-05-23T07:39:27;20.50;;;18.35;;
9834;SDS011;69850;50.942;13.748;2023-05-23T07:42:49;20.60;;;18.45;;
9834;SDS011;69850;50.942;13.748;2023-05-23T07:46:12;22.40;;;19.88;;
9834;SDS011;69850;50.942;13.748;2023-05-23T07:49:33;20.20;;;17.05;;
9834;SDS011;69850;50.942;13.748;2023-05-23T07:52:55;18.83;;;15.82;;
9834;SDS011;69850;50.942;13.748;2023-05-23T07:56:21;20.27;;;15.98;;
9834;SDS011;69850;50.942;13.748;2023-05-23T07:59:42;20.23;;;16.35;;
9834;SDS011;69850;50.942;13.748;2023-05-23T08:03:03;18.08;;;16.25;;
9834;SDS011;69850;50.942;13.748;2023-05-23T08:06:30;20.00;;;16.75;;
9834;SDS011;69850;50.942;13.748;2023-05-23T08:09:54;17.63;;;15.10;;
9834;SDS011;69850;50.942;13.748;2023-05-23T08:13:16;19.42;;;16.38;;
9834;SDS011;69850;50.942;13.748;2023-05-23T08:16:57;19.73;;;16.02;;
9834;SDS011;69850;50.942;13.748;2023-05-23T08:20:20;16.40;;;14.70;;
9834;SDS011;69850;50.942;13.748;2023-05-23T08:23:41;16.10;;;14.38;;
9834;SDS011;69850;50.942;13.748;2023-05-23T08:27:02;16.27;;;13.93;;
9834;SDS011;69850;50.942;13.748;2023-05-23T08:30:25;18.27;;;15.52;;
9834;SDS011;69850;50.942;13.748;2023-05-23T08:33:47;19.08;;;15.18;;
9834;SDS011;69850;50.942;13.748;2023-05-23T08:37:07;20.67;;;16.40;;
9834;SDS011;69850;50.942;13.748;2023-05-23T08:40:29;18.42;;;15.60;;
9834;SDS011;69850;50.942;13.748;2023-05-23T08:43:59;17.33;;;15.52;;
9834;SDS011;69850;50.942;13.748;2023-05-23T08:47:24;18.95;;;15.00;;
9834;SDS011;69850;50.942;13.748;2023-05-23T08:50:51;19.23;;;15.60;;
9834;SDS011;69850;50.942;13.748;2023-05-23T08:54:14;21.42;;;16.00;;
9834;SDS011;69850;50.942;13.748;2023-05-23T08:57:36;21.33;;;15.98;;
9834;SDS011;69850;50.942;13.748;2023-05-23T09:01:14;24.75;;;18.08;;
9834;SDS011;69850;50.942;13.748;2023-05-23T09:04:38;24.63;;;19.42;;
9834;SDS011;69850;50.942;13.748;2023-05-23T09:08:05;25.67;;;20.67;;
9834;SDS011;69850;50.942;13.748;2023-05-23T09:11:26;29.88;;;23.25;;
9834;SDS011;69850;50.942;13.748;2023-05-23T09:14:50;31.50;;;24.17;;
9834;SDS011;69850;50.942;13.748;2023-05-23T09:18:11;26.98;;;22.30;;
9834;SDS011;69850;50.942;13.748;2023-05-23T09:21:33;30.50;;;23.42;;
9834;SDS011;69850;50.942;13.748;2023-05-23T09:25:00;26.73;;;21.50;;
9834;SDS011;69850;50.942;13.748;2023-05-23T09:28:22;29.73;;;23.17;;
9834;SDS011;69850;50.942;13.748;2023-05-23T09:31:43;28.83;;;23.77;;
9834;SDS011;69850;50.942;13.748;2023-05-23T09:35:06;35.60;;;27.00;;
9834;SDS011;69850;50.942;13.748;2023-05-23T09:38:33;33.97;;;25.90;;
9834;SDS011;69850;50.942;13.748;2023-05-23T09:41:58;33.47;;;25.65;;
9834;SDS011;69850;50.942;13.748;2023-05-23T09:45:20;33.83;;;26.25;;
9834;SDS011;69850;50.942;13.748;2023-05-23T09:48:45;30.63;;;22.95;;
9834;SDS011;69850;50.942;13.748;2023-05-23T09:52:06;36.38;;;27.20;;
9834;SDS011;69850;50.942;13.748;2023-05-23T09:55:27;36.85;;;25.08;;
9834;SDS011;69850;50.942;13.748;2023-05-23T09:58:48;40.70;;;26.90;;
9834;SDS011;69850;50.942;13.748;2023-05-23T10:02:10;42.55;;;29.77;;
9834;SDS011;69850;50.942;13.748;2023-05-23T10:09:04;43.65;;;30.10;;
9834;SDS011;69850;50.942;13.748;2023-05-23T10:16:06;33.75;;;22.30;;
9834;SDS011;69850;50.942;13.748;2023-05-23T10:22:57;32.35;;;17.58;;
9834;SDS011;69850;50.942;13.748;2023-05-23T10:26:19;21.95;;;15.57;;
9834;SDS011;69850;50.942;13.748;2023-05-23T10:29:41;21.10;;;14.48;;
9834;SDS011;69850;50.942;13.748;2023-05-23T10:33:02;28.02;;;16.38;;
9834;SDS011;69850;50.942;13.748;2023-05-23T10:36:27;24.52;;;18.35;;
9834;SDS011;69850;50.942;13.748;2023-05-23T10:40:02;25.30;;;15.77;;
9834;SDS011;69850;50.942;13.748;2023-05-23T10:46:51;22.75;;;15.35;;
9834;SDS011;69850;50.942;13.748;2023-05-23T10:50:29;20.17;;;14.68;;
9834;SDS011;69850;50.942;13.748;2023-05-23T10:53:54;22.45;;;15.93;;
9834;SDS011;69850;50.942;13.748;2023-05-23T10:57:15;22.30;;;16.40;;
9834;SDS011;69850;50.942;13.748;2023-05-23T11:00:37;22.23;;;15.68;;
9834;SDS011;69850;50.942;13.748;2023-05-23T11:03:58;26.40;;;17.50;;
9834;SDS011;69850;50.942;13.748;2023-05-23T11:07:28;23.42;;;16.60;;
9834;SDS011;69850;50.942;13.748;2023-05-23T11:10:50;24.00;;;14.98;;
9834;SDS011;69850;50.942;13.748;2023-05-23T11:17:56;19.65;;;14.60;;
9834;SDS011;69850;50.942;13.748;2023-05-23T11:21:18;16.90;;;12.63;;
9834;SDS011;69850;50.942;13.748;2023-05-23T11:24:46;19.20;;;11.40;;
9834;SDS011;69850;50.942;13.748;2023-05-23T11:28:10;14.30;;;11.02;;
9834;SDS011;69850;50.942;13.748;2023-05-23T11:31:35;15.15;;;10.95;;
9834;SDS011;69850;50.942;13.748;2023-05-23T11:35:02;13.43;;;11.45;;
9834;SDS011;69850;50.942;13.748;2023-05-23T11:38:25;16.48;;;11.10;;
9834;SDS011;69850;50.942;13.748;2023-05-23T11:41:49;15.82;;;11.80;;
9834;SDS011;69850;50.942;13.748;2023-05-23T11:45:30;18.02;;;13.00;;
9834;SDS011;69850;50.942;13.748;2023-05-23T11:48:52;17.42;;;13.02;;
9834;SDS011;69850;50.942;13.748;2023-05-23T11:52:13;17.10;;;13.07;;
9834;SDS011;69850;50.942;13.748;2023-05-23T11:55:34;22.20;;;14.15;;
9834;SDS011;69850;50.942;13.748;2023-05-23T11:58:55;20.65;;;13.35;;
9834;SDS011;69850;50.942;13.748;2023-05-23T12:02:16;15.02;;;10.82;;
9834;SDS011;69850;50.942;13.748;2023-05-23T12:05:37;17.20;;;13.02;;
9834;SDS011;69850;50.942;13.748;2023-05-23T12:08:58;18.25;;;13.20;;
9834;SDS011;69850;50.942;13.748;2023-05-23T12:12:18;15.88;;;11.82;;
9834;SDS011;69850;50.942;13.748;2023-05-23T12:15:39;13.75;;;12.10;;
9834;SDS011;69850;50.942;13.748;2023-05-23T12:19:01;14.98;;;11.45;;
9834;SDS011;69850;50.942;13.748;2023-05-23T12:22:22;12.55;;;9.98;;
9834;SDS011;69850;50.942;13.748;2023-05-23T12:25:43;16.02;;;10.75;;
9834;SDS011;69850;50.942;13.748;2023-05-23T12:29:04;13.05;;;9.57;;
9834;SDS011;69850;50.942;13.748;2023-05-23T12:32:25;15.45;;;10.43;;
9834;SDS011;69850;50.942;13.748;2023-05-23T12:35:45;13.57;;;10.80;;
9834;SDS011;69850;50.942;13.748;2023-05-23T12:39:06;15.10;;;11.27;;
9834;SDS011;69850;50.942;13.748;2023-05-23T12:42:28;15.13;;;12.13;;
9834;SDS011;69850;50.942;13.748;2023-05-23T12:45:48;18.58;;;11.73;;
9834;SDS011;69850;50.942;13.748;2023-05-23T12:49:09;14.45;;;11.20;;
9834;SDS011;69850;50.942;13.748;2023-05-23T12:52:30;15.60;;;10.98;;
9834;SDS011;69850;50.942;13.748;2023-05-23T12:55:50;12.75;;;10.13;;
9834;SDS011;69850;50.942;13.748;2023-05-23T12:59:11;13.63;;;9.98;;
9834;SDS011;69850;50.942;13.748;2023-05-23T13:02:32;12.20;;;9.40;;
9834;SDS011;69850;50.942;13.748;2023-05-23T13:05:52;11.52;;;10.05;;
9834;SDS011;69850;50.942;13.748;2023-05-23T13:09:13;11.85;;;10.15;;
9834;SDS011;69850;50.942;13.748;2023-05-23T13:12:34;15.88;;;11.15;;
9834;SDS011;69850;50.942;13.748;2023-05-23T13:15:55;12.32;;;10.32;;
9834;SDS011;69850;50.942;13.748;2023-05-23T13:19:15;13.13;;;10.40;;
9834;SDS011;69850;50.942;13.748;2023-05-23T13:22:36;12.75;;;10.68;;
9834;SDS011;69850;50.942;13.748;2023-05-23T13:25:57;12.35;;;9.35;;
9834;SDS011;69850;50.942;13.748;2023-05-23T13:29:18;10.18;;;9.02;;
9834;SDS011;69850;50.942;13.748;2023-05-23T13:32:39;11.25;;;8.52;;
9834;SDS011;69850;50.942;13.748;2023-05-23T13:36:00;10.23;;;8.40;;
9834;SDS011;69850;50.942;13.748;2023-05-23T13:39:20;11.70;;;8.50;;
9834;SDS011;69850;50.942;13.748;2023-05-23T13:42:43;10.38;;;7.70;;
9834;SDS011;69850;50.942;13.748;2023-05-23T13:46:04;15.27;;;10.02;;
9834;SDS011;69850;50.942;13.748;2023-05-23T13:49:25;12.80;;;9.43;;
9834;SDS011;69850;50.942;13.748;2023-05-23T13:52:45;10.13;;;8.23;;
9834;SDS011;69850;50.942;13.748;2023-05-23T13:56:06;10.85;;;8.15;;
9834;SDS011;69850;50.942;13.748;2023-05-23T13:59:27;11.82;;;8.77;;
9834;SDS011;69850;50.942;13.748;2023-05-23T14:02:47;15.38;;;11.55;;
9834;SDS011;69850;50.942;13.748;2023-05-23T14:06:08;16.25;;;12.18;;
9834;SDS011;69850;50.942;13.748;2023-05-23T14:09:29;16.85;;;14.05;;
9834;SDS011;69850;50.942;13.748;2023-05-23T14:12:49;24.95;;;18.05;;
9834;SDS011;69850;50.942;13.748;2023-05-23T14:16:10;22.13;;;17.50;;
9834;SDS011;69850;50.942;13.748;2023-05-23T14:19:31;25.10;;;19.50;;
9834;SDS011;69850;50.942;13.748;2023-05-23T14:22:51;29.15;;;21.58;;
9834;SDS011;69850;50.942;13.748;2023-05-23T14:26:14;30.23;;;21.38;;
9834;SDS011;69850;50.942;13.748;2023-05-23T14:29:34;30.85;;;23.00;;
9834;SDS011;69850;50.942;13.748;2023-05-23T14:32:55;29.38;;;23.08;;
9834;SDS011;69850;50.942;13.748;2023-05-23T14:36:16;24.67;;;17.95;;
9834;SDS011;69850;50.942;13.748;2023-05-23T14:39:37;21.17;;;15.02;;
9834;SDS011;69850;50.942;13.748;2023-05-23T14:42:58;21.13;;;14.65;;
9834;SDS011;69850;50.942;13.748;2023-05-23T14:46:18;18.15;;;13.68;;
9834;SDS011;69850;50.942;13.748;2023-05-23T14:49:39;18.73;;;13.88;;
9834;SDS011;69850;50.942;13.748;2023-05-23T14:53:00;15.63;;;12.68;;
9834;SDS011;69850;50.942;13.748;2023-05-23T14:56:20;6.20;;;5.30;;
9834;SDS011;69850;50.942;13.748;2023-05-23T14:59:42;5.38;;;4.30;;
9834;SDS011;69850;50.942;13.748;2023-05-23T15:03:03;7.53;;;5.55;;
9834;SDS011;69850;50.942;13.748;2023-05-23T15:06:23;8.98;;;6.72;;
9834;SDS011;69850;50.942;13.748;2023-05-23T15:09:44;10.60;;;7.00;;
9834;SDS011;69850;50.942;13.748;2023-05-23T15:13:06;13.18;;;9.00;;
9834;SDS011;69850;50.942;13.748;2023-05-23T15:16:27;13.57;;;9.88;;
9834;SDS011;69850;50.942;13.748;2023-05-23T15:19:51;16.45;;;12.18;;
9834;SDS011;69850;50.942;13.748;2023-05-23T15:23:12;15.13;;;11.77;;
9834;SDS011;69850;50.942;13.748;2023-05-23T15:26:33;16.95;;;12.52;;
9834;SDS011;69850;50.942;13.748;2023-05-23T15:29:53;16.85;;;13.93;;
9834;SDS011;69850;50.942;13.748;2023-05-23T15:33:14;19.95;;;14.43;;
9834;SDS011;69850;50.942;13.748;2023-05-23T15:36:35;17.13;;;12.27;;
9834;SDS011;69850;50.942;13.748;2023-05-23T15:39:55;20.08;;;14.73;;
9834;SDS011;69850;50.942;13.748;2023-05-23T15:43:16;20.55;;;13.27;;
9834;SDS011;69850;50.942;13.748;2023-05-23T15:46:37;16.77;;;12.88;;
9834;SDS011;69850;50.942;13.748;2023-05-23T15:49:57;15.32;;;11.88;;
9834;SDS011;69850;50.942;13.748;2023-05-23T15:53:18;12.95;;;9.30;;
9834;SDS011;69850;50.942;13.748;2023-05-23T15:56:39;15.80;;;12.80;;
9834;SDS011;69850;50.942;13.748;2023-05-23T16:00:00;14.88;;;11.25;;
9834;SDS011;69850;50.942;13.748;2023-05-23T16:03:21;16.15;;;12.73;;
9834;SDS011;69850;50.942;13.748;2023-05-23T16:06:41;18.52;;;14.13;;
9834;SDS011;69850;50.942;13.748;2023-05-23T16:10:02;19.90;;;13.32;;
9834;SDS011;69850;50.942;13.748;2023-05-23T16:13:23;14.95;;;9.32;;
9834;SDS011;69850;50.942;13.748;2023-05-23T16:16:43;13.95;;;11.27;;
9834;SDS011;69850;50.942;13.748;2023-05-23T16:20:04;13.38;;;9.15;;
9834;SDS011;69850;50.942;13.748;2023-05-23T16:23:27;10.93;;;8.18;;
9834;SDS011;69850;50.942;13.748;2023-05-23T16:26:48;10.98;;;8.32;;
9834;SDS011;69850;50.942;13.748;2023-05-23T16:30:08;12.15;;;8.40;;
9834;SDS011;69850;50.942;13.748;2023-05-23T16:33:30;15.15;;;10.82;;
9834;SDS011;69850;50.942;13.748;2023-05-23T16:36:50;16.25;;;10.23;;
9834;SDS011;69850;50.942;13.748;2023-05-23T16:40:11;15.52;;;11.07;;
9834;SDS011;69850;50.942;13.748;2023-05-23T16:43:32;14.98;;;11.77;;
9834;SDS011;69850;50.942;13.748;2023-05-23T16:46:53;18.08;;;12.70;;
9834;SDS011;69850;50.942;13.748;2023-05-23T16:50:14;17.77;;;11.32;;
9834;SDS011;69850;50.942;13.748;2023-05-23T16:53:35;12.05;;;8.98;;
9834;SDS011;69850;50.942;13.748;2023-05-23T16:56:55;13.43;;;9.45;;
9834;SDS011;69850;50.942;13.748;2023-05-23T17:00:17;8.98;;;7.88;;
9834;SDS011;69850;50.942;13.748;2023-05-23T17:03:39;9.57;;;6.97;;
9834;SDS011;69850;50.942;13.748;2023-05-23T17:07:00;10.00;;;7.38;;
9834;SDS011;69850;50.942;13.748;2023-05-23T17:10:21;10.35;;;7.28;;
9834;SDS011;69850;50.942;13.748;2023-05-23T17:13:42;8.60;;;5.90;;
9834;SDS011;69850;50.942;13.748;2023-05-23T17:17:02;6.97;;;5.03;;
9834;SDS011;69850;50.942;13.748;2023-05-23T17:20:24;8.13;;;5.60;;
9834;SDS011;69850;50.942;13.748;2023-05-23T17:23:45;7.60;;;5.07;;
9834;SDS011;69850;50.942;13.748;2023-05-23T17:27:06;8.70;;;4.93;;
9834;SDS011;69850;50.942;13.748;2023-05-23T17:30:27;7.60;;;5.25;;
9834;SDS011;69850;50.942;13.748;2023-05-23T17:33:48;9.25;;;5.63;;
9834;SDS011;69850;50.942;13.748;2023-05-23T17:37:09;9.70;;;6.15;;
9834;SDS011;69850;50.942;13.748;2023-05-23T17:40:30;9.23;;;5.90;;
9834;SDS011;69850;50.942;13.748;2023-05-23T17:43:51;6.80;;;4.50;;
9834;SDS011;69850;50.942;13.748;2023-05-23T17:47:12;7.85;;;5.70;;
9834;SDS011;69850;50.942;13.748;2023-05-23T17:50:33;10.23;;;6.10;;
9834;SDS011;69850;50.942;13.748;2023-05-23T17:53:53;7.03;;;4.55;;
9834;SDS011;69850;50.942;13.748;2023-05-23T17:57:14;10.15;;;5.97;;
9834;SDS011;69850;50.942;13.748;2023-05-23T18:00:35;6.53;;;3.50;;
9834;SDS011;69850;50.942;13.748;2023-05-23T18:03:56;7.57;;;4.85;;
9834;SDS011;69850;50.942;13.748;2023-05-23T18:07:17;5.82;;;3.33;;
9834;SDS011;69850;50.942;13.748;2023-05-23T18:10:38;6.55;;;3.67;;
9834;SDS011;69850;50.942;13.748;2023-05-23T18:13:59;4.82;;;3.42;;
9834;SDS011;69850;50.942;13.748;2023-05-23T18:17:19;6.18;;;4.40;;
9834;SDS011;69850;50.942;13.748;2023-05-23T18:20:40;4.18;;;2.42;;
9834;SDS011;69850;50.942;13.748;2023-05-23T18:24:01;8.10;;;4.18;;
9834;SDS011;69850;50.942;13.748;2023-05-23T18:27:23;4.25;;;3.03;;
9834;SDS011;69850;50.942;13.748;2023-05-23T18:30:43;5.13;;;3.95;;
9834;SDS011;69850;50.942;13.748;2023-05-23T18:34:04;5.55;;;2.75;;
9834;SDS011;69850;50.942;13.748;2023-05-23T18:37:25;7.55;;;4.30;;
9834;SDS011;69850;50.942;13.748;2023-05-23T18:40:46;6.75;;;4.82;;
9834;SDS011;69850;50.942;13.748;2023-05-23T18:44:07;10.23;;;5.88;;
9834;SDS011;69850;50.942;13.748;2023-05-23T18:47:27;5.90;;;4.80;;
9834;SDS011;69850;50.942;13.748;2023-05-23T18:50:48;9.43;;;5.97;;
9834;SDS011;69850;50.942;13.748;2023-05-23T18:54:08;10.95;;;7.03;;
9834;SDS011;69850;50.942;13.748;2023-05-23T18:57:29;13.00;;;8.70;;
9834;SDS011;69850;50.942;13.748;2023-05-23T19:00:52;15.25;;;10.68;;
9834;SDS011;69850;50.942;13.748;2023-05-23T19:04:13;12.27;;;8.60;;
9834;SDS011;69850;50.942;13.748;2023-05-23T19:07:33;21.15;;;12.88;;
9834;SDS011;69850;50.942;13.748;2023-05-23T19:10:54;22.13;;;13.63;;
9834;SDS011;69850;50.942;13.748;2023-05-23T19:14:15;28.08;;;14.48;;
9834;SDS011;69850;50.942;13.748;2023-05-23T19:17:36;34.22;;;17.20;;
9834;SDS011;69850;50.942;13.748;2023-05-23T19:20:58;26.83;;;15.45;;
9834;SDS011;69850;50.942;13.748;2023-05-23T19:24:19;46.88;;;24.48;;
9834;SDS011;69850;50.942;13.748;2023-05-23T19:27:40;23.33;;;11.25;;
9834;SDS011;69850;50.942;13.748;2023-05-23T19:31:00;41.20;;;22.55;;
9834;SDS011;69850;50.942;13.748;2023-05-23T19:34:21;39.55;;;22.33;;
9834;SDS011;69850;50.942;13.748;2023-05-23T19:37:42;45.90;;;23.35;;
9834;SDS011;69850;50.942;13.748;2023-05-23T19:41:02;39.58;;;19.42;;
9834;SDS011;69850;50.942;13.748;2023-05-23T19:44:23;41.47;;;21.17;;
9834;SDS011;69850;50.942;13.748;2023-05-23T19:47:44;38.75;;;21.95;;
9834;SDS011;69850;50.942;13.748;2023-05-23T19:51:05;39.08;;;19.10;;
9834;SDS011;69850;50.942;13.748;2023-05-23T19:54:26;44.25;;;22.70;;
9834;SDS011;69850;50.942;13.748;2023-05-23T19:57:47;43.75;;;23.95;;
9834;SDS011;69850;50.942;13.748;2023-05-23T20:01:07;44.10;;;20.98;;
9834;SDS011;69850;50.942;13.748;2023-05-23T20:04:28;46.70;;;23.17;;
9834;SDS011;69850;50.942;13.748;2023-05-23T20:07:49;40.35;;;21.27;;